createdAt,value
2018-04-19T00:02:25.538Z,4.37
2018-04-19T00:04:51.820Z,4.43
2018-04-19T00:07:18.127Z,5.23
2018-04-19T00:09:45.181Z,5.67
2018-04-19T00:12:11.501Z,5.20
2018-04-19T00:14:37.775Z,6.50
2018-04-19T00:17:04.080Z,4.20
2018-04-19T00:19:31.158Z,5.10
2018-04-19T00:21:57.381Z,5.07
2018-04-19T00:24:23.628Z,5.57
2018-04-19T00:26:49.910Z,5.10
2018-04-19T00:29:16.191Z,4.70
2018-04-19T00:31:44.536Z,4.63
2018-04-19T00:34:10.793Z,4.50
2018-04-19T00:36:37.016Z,4.80
2018-04-19T00:39:03.302Z,4.90
2018-04-19T00:41:29.575Z,4.60
2018-04-19T00:43:55.839Z,4.70
2018-04-19T00:46:22.117Z,4.40
2018-04-19T00:48:48.423Z,4.30
2018-04-19T00:51:14.661Z,4.67
2018-04-19T00:53:41.641Z,3.47
2018-04-19T00:56:07.945Z,4.60
2018-04-19T00:58:34.966Z,4.43
2018-04-19T01:01:01.233Z,3.80
2018-04-19T01:03:27.473Z,3.70
2018-04-19T01:05:53.780Z,3.67
2018-04-19T01:08:20.051Z,4.43
2018-04-19T01:10:46.293Z,4.57
2018-04-19T01:13:12.596Z,3.80
2018-04-19T01:15:38.892Z,3.87
2018-04-19T01:18:05.885Z,4.80
2018-04-19T01:20:32.181Z,4.20
2018-04-19T01:22:58.475Z,4.60
2018-04-19T01:25:24.753Z,4.33
2018-04-19T01:27:51.037Z,4.03
2018-04-19T01:30:17.265Z,4.23
2018-04-19T01:32:43.528Z,5.00
2018-04-19T01:35:09.785Z,4.70
2018-04-19T01:37:36.004Z,4.77
2018-04-19T01:40:02.279Z,4.30
2018-04-19T01:42:28.517Z,4.47
2018-04-19T01:44:55.529Z,4.00
2018-04-19T01:47:21.829Z,3.53
2018-04-19T01:49:48.081Z,4.13
2018-04-19T01:52:14.345Z,4.20
2018-04-19T01:54:40.626Z,3.73
2018-04-19T01:57:06.849Z,4.20
2018-04-19T01:59:33.125Z,3.80
2018-04-19T02:01:59.349Z,3.83
2018-04-19T02:04:25.662Z,4.07
2018-04-19T02:06:51.923Z,3.80
2018-04-19T02:09:18.952Z,4.13
2018-04-19T02:11:45.264Z,3.97
2018-04-19T02:14:11.578Z,3.87
2018-04-19T02:16:37.823Z,3.97
2018-04-19T02:19:04.136Z,4.50
2018-04-19T02:21:30.404Z,4.30
2018-04-19T02:23:56.609Z,4.20
2018-04-19T02:26:22.854Z,4.17
2018-04-19T02:28:49.134Z,3.80
2018-04-19T02:31:16.474Z,4.03
2018-04-19T02:33:42.769Z,3.77
2018-04-19T02:36:09.080Z,4.13
2018-04-19T02:38:35.378Z,3.60
2018-04-19T02:41:01.591Z,3.90
2018-04-19T02:43:27.831Z,3.47
2018-04-19T02:45:54.054Z,4.30
2018-04-19T02:48:20.278Z,3.67
2018-04-19T02:50:46.555Z,3.83
2018-04-19T02:53:12.863Z,4.00
2018-04-19T02:55:39.132Z,3.33
2018-04-19T02:58:05.439Z,3.47
2018-04-19T03:00:31.708Z,3.60
2018-04-19T03:02:58.745Z,3.00
2018-04-19T03:05:25.079Z,3.00
2018-04-19T03:07:52.069Z,3.90
2018-04-19T03:10:18.356Z,3.93
2018-04-19T03:12:45.379Z,3.80
2018-04-19T03:15:11.657Z,4.43
2018-04-19T03:17:37.933Z,5.10
2018-04-19T03:20:04.201Z,4.60
2018-04-19T03:22:30.445Z,5.00
2018-04-19T03:24:56.793Z,5.00
2018-04-19T03:27:23.117Z,4.10
2018-04-19T03:29:49.362Z,4.37
2018-04-19T03:32:15.667Z,4.93
2018-04-19T03:34:41.932Z,4.50
2018-04-19T03:37:08.230Z,3.80
2018-04-19T03:39:34.522Z,4.27
2018-04-19T03:42:01.500Z,4.60
2018-04-19T03:44:27.757Z,4.80
2018-04-19T03:46:54.003Z,4.57
2018-04-19T03:49:20.293Z,5.10
2018-04-19T03:51:46.540Z,4.43
2018-04-19T03:54:12.801Z,5.13
2018-04-19T03:56:39.106Z,4.67
2018-04-19T03:59:26.096Z,4.60
2018-04-19T04:01:52.423Z,4.17
2018-04-19T04:04:18.670Z,4.30
2018-04-19T04:06:44.894Z,5.00
2018-04-19T04:09:11.190Z,4.30
2018-04-19T04:11:37.478Z,4.90
2018-04-19T04:14:03.729Z,4.57
2018-04-19T04:16:42.970Z,5.17
2018-04-19T04:19:22.431Z,5.63
2018-04-19T04:22:01.156Z,5.27
2018-04-19T04:24:27.435Z,7.83
2018-04-19T04:26:53.671Z,6.20
2018-04-19T04:29:20.682Z,6.47
2018-04-19T04:31:46.930Z,5.37
2018-04-19T04:34:13.172Z,5.70
2018-04-19T04:36:40.174Z,7.37
2018-04-19T04:39:06.457Z,4.90
2018-04-19T04:41:33.514Z,6.27
2018-04-19T04:44:00.512Z,7.23
2018-04-19T04:46:26.773Z,5.20
2018-04-19T04:48:52.975Z,6.90
2018-04-19T04:51:19.217Z,6.07
2018-04-19T04:53:45.491Z,6.83
2018-04-19T04:56:11.741Z,8.27
2018-04-19T04:58:38.020Z,6.93
2018-04-19T05:01:04.290Z,7.67
2018-04-19T05:03:30.534Z,9.50
2018-04-19T05:05:56.865Z,8.30
2018-04-19T05:08:23.125Z,7.07
2018-04-19T05:10:49.378Z,7.77
2018-04-19T05:13:15.638Z,6.40
2018-04-19T05:15:41.893Z,6.73
2018-04-19T05:18:08.162Z,6.13
2018-04-19T05:20:34.406Z,6.27
2018-04-19T05:23:00.689Z,6.20
2018-04-19T05:25:26.934Z,5.50
2018-04-19T05:27:53.140Z,8.37
2018-04-19T05:30:19.495Z,7.33
2018-04-19T05:32:46.463Z,6.17
2018-04-19T05:35:12.794Z,7.83
2018-04-19T05:37:39.080Z,6.10
2018-04-19T05:40:05.310Z,7.60
2018-04-19T05:42:31.572Z,6.70
2018-04-19T05:44:57.861Z,7.03
2018-04-19T05:47:24.091Z,5.20
2018-04-19T05:49:50.331Z,5.10
2018-04-19T05:52:16.596Z,6.40
2018-04-19T05:54:42.835Z,6.70
2018-04-19T05:57:09.127Z,5.87
2018-04-19T05:59:35.386Z,6.23
2018-04-19T06:02:01.642Z,5.60
2018-04-19T06:04:27.954Z,5.50
2018-04-19T06:06:54.259Z,7.60
2018-04-19T06:09:20.546Z,6.60
2018-04-19T06:11:46.773Z,7.87
2018-04-19T06:14:12.998Z,9.00
2018-04-19T06:16:39.256Z,12.83
2018-04-19T06:19:06.276Z,13.13
2018-04-19T06:21:32.528Z,15.60
2018-04-19T06:23:58.809Z,12.50
2018-04-19T06:26:25.062Z,9.67
2018-04-19T06:28:51.293Z,10.10
2018-04-19T06:31:17.590Z,11.20
2018-04-19T06:33:43.834Z,9.63
2018-04-19T06:36:10.092Z,8.60
2018-04-19T06:38:36.344Z,8.33
2018-04-19T06:41:03.333Z,9.00
2018-04-19T06:43:29.581Z,8.07
2018-04-19T06:45:55.840Z,8.77
2018-04-19T06:48:22.813Z,7.87
2018-04-19T06:50:49.151Z,8.30
2018-04-19T06:53:15.409Z,9.00
2018-04-19T06:55:41.649Z,8.40
2018-04-19T06:58:07.877Z,7.73
2018-04-19T07:00:34.138Z,9.13
2018-04-19T07:03:01.113Z,9.57
2018-04-19T07:05:27.350Z,9.00
2018-04-19T07:07:53.648Z,8.53
2018-04-19T07:10:19.941Z,8.87
2018-04-19T07:12:46.162Z,8.87
2018-04-19T07:15:12.474Z,9.43
2018-04-19T07:17:38.694Z,8.97
2018-04-19T07:20:04.971Z,9.43
2018-04-19T07:22:32.009Z,8.60
2018-04-19T07:24:58.237Z,9.03
2018-04-19T07:27:24.505Z,8.60
2018-04-19T07:29:50.745Z,9.03
2018-04-19T07:32:17.024Z,9.17
2018-04-19T07:34:43.241Z,9.37
2018-04-19T07:37:09.486Z,8.13
2018-04-19T07:39:35.787Z,9.33
2018-04-19T07:42:02.046Z,9.33
2018-04-19T07:44:28.264Z,9.70
2018-04-19T07:46:54.556Z,10.83
2018-04-19T07:49:20.781Z,10.27
2018-04-19T07:51:47.032Z,9.93
2018-04-19T07:54:13.320Z,11.20
2018-04-19T07:56:39.518Z,9.87
2018-04-19T07:59:05.877Z,10.00
2018-04-19T08:01:32.202Z,9.90
2018-04-19T08:03:58.497Z,9.23
2018-04-19T08:06:24.734Z,9.90
2018-04-19T08:08:51.761Z,8.87
2018-04-19T08:11:18.080Z,8.60
2018-04-19T08:13:44.343Z,9.20
2018-04-19T08:16:11.318Z,10.50
2018-04-19T08:18:37.550Z,10.20
2018-04-19T08:21:03.874Z,10.13
2018-04-19T08:23:30.246Z,8.17
2018-04-19T08:25:56.515Z,11.87
2018-04-19T08:28:23.462Z,10.63
2018-04-19T08:30:50.466Z,10.90
2018-04-19T08:33:16.742Z,10.20
2018-04-19T08:35:43.737Z,10.33
2018-04-19T08:38:10.021Z,10.83
2018-04-19T08:40:36.297Z,10.57
2018-04-19T08:43:02.578Z,9.43
2018-04-19T08:45:28.883Z,11.67
2018-04-19T08:47:55.141Z,9.73
2018-04-19T08:50:21.454Z,11.70
2018-04-19T08:52:48.486Z,10.33
2018-04-19T08:55:14.721Z,8.67
2018-04-19T08:57:41.007Z,10.57
2018-04-19T09:00:07.228Z,10.40
2018-04-19T09:02:33.430Z,11.10
2018-04-19T09:04:59.662Z,9.57
2018-04-19T09:07:25.916Z,9.93
2018-04-19T09:09:52.186Z,9.10
2018-04-19T09:12:18.477Z,9.27
2018-04-19T09:14:44.774Z,10.07
2018-04-19T09:17:11.763Z,9.00
2018-04-19T09:19:38.012Z,8.53
2018-04-19T09:22:04.315Z,9.70
2018-04-19T09:24:30.578Z,7.90
2018-04-19T09:26:56.799Z,8.27
2018-04-19T09:29:23.018Z,8.20
2018-04-19T09:31:49.292Z,8.33
2018-04-19T09:34:15.559Z,8.50
2018-04-19T09:36:41.792Z,8.00
2018-04-19T09:39:08.067Z,7.30
2018-04-19T09:41:35.027Z,8.90
2018-04-19T09:44:01.243Z,8.00
2018-04-19T09:46:28.238Z,7.00
2018-04-19T09:48:54.473Z,7.60
2018-04-19T09:51:21.780Z,7.33
2018-04-19T09:53:48.108Z,6.90
2018-04-19T09:56:14.331Z,7.93
2018-04-19T09:58:40.606Z,6.83
2018-04-19T10:01:08.684Z,7.37
2018-04-19T10:03:40.866Z,6.40
2018-04-19T10:06:07.099Z,6.80
2018-04-19T10:08:33.317Z,6.60
2018-04-19T10:10:59.568Z,6.70
2018-04-19T10:13:25.809Z,7.90
2018-04-19T10:15:52.789Z,6.80
2018-04-19T10:18:19.198Z,7.50
2018-04-19T10:20:45.419Z,6.40
2018-04-19T10:23:11.747Z,5.87
2018-04-19T10:25:38.707Z,6.77
2018-04-19T10:28:04.911Z,6.50
2018-04-19T10:30:31.962Z,6.70
2018-04-19T10:32:58.946Z,6.30
2018-04-19T10:35:25.215Z,6.07
2018-04-19T10:37:51.484Z,6.63
2018-04-19T10:40:17.755Z,5.33
2018-04-19T10:42:43.986Z,5.30
2018-04-19T10:45:10.258Z,5.47
2018-04-19T10:47:37.259Z,6.07
2018-04-19T10:50:03.528Z,5.20
2018-04-19T10:52:30.507Z,4.73
2018-04-19T10:54:56.785Z,5.97
2018-04-19T10:57:23.019Z,5.53
2018-04-19T10:59:50.034Z,5.70
2018-04-19T11:02:16.254Z,5.43
2018-04-19T11:04:42.458Z,5.47
2018-04-19T11:07:08.746Z,6.17
2018-04-19T11:09:35.790Z,5.13
2018-04-19T11:12:02.026Z,6.23
2018-04-19T11:14:29.057Z,5.60
2018-04-19T11:16:55.278Z,5.70
2018-04-19T11:19:21.550Z,6.03
2018-04-19T11:21:47.810Z,5.83
2018-04-19T11:24:14.065Z,5.63
2018-04-19T11:26:40.345Z,4.87
2018-04-19T11:29:06.619Z,5.33
2018-04-19T11:31:32.969Z,6.23
2018-04-19T11:33:59.218Z,6.33
2018-04-19T11:36:25.473Z,6.17
2018-04-19T11:38:51.712Z,5.83
2018-04-19T11:41:17.968Z,7.67
2018-04-19T11:43:44.233Z,7.63
2018-04-19T11:46:11.203Z,8.33
2018-04-19T11:48:37.501Z,8.57
2018-04-19T11:51:04.492Z,7.30
2018-04-19T11:53:30.776Z,6.67
2018-04-19T11:55:57.825Z,8.30
2018-04-19T11:58:24.076Z,6.57
2018-04-19T12:00:50.321Z,5.60
2018-04-19T12:03:16.546Z,6.27
2018-04-19T12:05:42.817Z,6.20
2018-04-19T12:08:09.044Z,6.80
2018-04-19T12:10:35.290Z,5.23
2018-04-19T12:13:02.279Z,6.10
2018-04-19T12:15:28.531Z,7.40
2018-04-19T12:17:54.767Z,6.70
2018-04-19T12:20:21.022Z,7.40
2018-04-19T12:22:48.039Z,6.70
2018-04-19T12:25:14.294Z,9.73
2018-04-19T12:27:40.568Z,6.33
2018-04-19T12:30:06.839Z,5.63
2018-04-19T12:32:33.140Z,4.73
2018-04-19T12:34:59.423Z,5.67
2018-04-19T12:37:26.431Z,5.67
2018-04-19T12:39:52.646Z,5.60
2018-04-19T12:42:18.905Z,6.57
2018-04-19T12:44:45.125Z,5.50
2018-04-19T12:47:11.403Z,4.60
2018-04-19T12:49:37.695Z,5.20
2018-04-19T12:52:03.892Z,6.43
2018-04-19T12:54:30.320Z,5.30
2018-04-19T12:56:56.566Z,6.50
2018-04-19T12:59:22.859Z,7.30
2018-04-19T13:01:49.095Z,5.40
2018-04-19T13:04:15.335Z,6.10
2018-04-19T13:06:41.571Z,6.00
2018-04-19T13:09:07.847Z,5.20
2018-04-19T13:11:34.081Z,6.40
2018-04-19T13:14:00.334Z,6.70
2018-04-19T13:16:26.592Z,5.60
2018-04-19T13:18:52.835Z,4.70
2018-04-19T13:21:19.027Z,5.60
2018-04-19T13:23:45.289Z,6.03
2018-04-19T13:26:11.533Z,5.70
2018-04-19T13:28:38.502Z,4.90
2018-04-19T13:31:04.716Z,5.80
2018-04-19T13:33:30.995Z,5.30
2018-04-19T13:35:57.258Z,6.00
2018-04-19T13:38:23.530Z,5.30
2018-04-19T13:40:49.795Z,5.57
2018-04-19T13:43:16.043Z,5.50
2018-04-19T13:45:42.267Z,5.83
2018-04-19T13:48:08.547Z,5.77
2018-04-19T13:50:35.133Z,4.90
2018-04-19T13:53:01.379Z,5.70
2018-04-19T13:55:28.297Z,5.40
2018-04-19T13:57:54.599Z,5.10
2018-04-19T14:00:20.890Z,5.60
2018-04-19T14:02:47.127Z,5.10
2018-04-19T14:05:13.364Z,5.20
2018-04-19T14:07:39.651Z,4.70
2018-04-19T14:10:06.027Z,4.40
2018-04-19T14:12:32.266Z,4.90
2018-04-19T14:14:58.527Z,4.70
2018-04-19T14:17:24.786Z,4.60
2018-04-19T14:19:51.814Z,5.13
2018-04-19T14:22:18.051Z,4.03
2018-04-19T14:24:45.039Z,5.00
2018-04-19T14:27:11.321Z,5.30
2018-04-19T14:29:38.303Z,4.10
2018-04-19T14:32:04.519Z,5.10
2018-04-19T14:34:30.791Z,4.63
2018-04-19T14:36:57.024Z,4.80
2018-04-19T14:39:23.287Z,4.67
2018-04-19T14:41:50.303Z,5.43
2018-04-19T14:44:16.543Z,4.80
2018-04-19T14:46:42.770Z,5.00
2018-04-19T14:49:09.074Z,4.37
2018-04-19T14:51:35.323Z,5.03
2018-04-19T14:54:01.511Z,4.47
2018-04-19T14:56:27.727Z,4.27
2018-04-19T14:58:53.992Z,4.60
2018-04-19T15:01:20.235Z,4.50
2018-04-19T15:03:46.502Z,4.50
2018-04-19T15:06:12.796Z,4.40
2018-04-19T15:08:39.135Z,4.23
2018-04-19T15:11:05.382Z,3.80
2018-04-19T15:13:32.384Z,3.93
2018-04-19T15:15:58.672Z,4.20
2018-04-19T15:18:24.959Z,4.10
2018-04-19T15:20:51.232Z,4.20
2018-04-19T15:23:17.508Z,4.37
2018-04-19T15:25:43.802Z,4.10
2018-04-19T15:28:10.068Z,4.43
2018-04-19T15:30:36.303Z,4.20
2018-04-19T15:33:02.571Z,3.70
2018-04-19T15:35:29.148Z,3.63
2018-04-19T15:37:55.367Z,3.97
2018-04-19T15:40:21.664Z,3.53
2018-04-19T15:42:47.900Z,4.90
2018-04-19T15:45:14.124Z,4.10
2018-04-19T15:47:40.486Z,4.27
2018-04-19T15:50:06.749Z,4.63
2018-04-19T15:52:33.014Z,3.47
2018-04-19T15:54:59.264Z,4.03
2018-04-19T15:57:25.498Z,4.27
2018-04-19T15:59:51.771Z,3.63
2018-04-19T16:02:18.747Z,4.20
2018-04-19T16:04:45.083Z,3.87
2018-04-19T16:07:11.361Z,4.63
2018-04-19T16:09:37.707Z,3.73
2018-04-19T16:12:04.765Z,4.47
2018-04-19T16:14:31.740Z,4.23
2018-04-19T16:16:57.999Z,3.37
2018-04-19T16:19:24.291Z,4.00
2018-04-19T16:21:50.554Z,4.53
2018-04-19T16:24:16.799Z,3.87
2018-04-19T16:26:43.029Z,3.97
2018-04-19T16:29:09.367Z,3.80
2018-04-19T16:31:36.372Z,4.17
2018-04-19T16:34:02.693Z,3.80
2018-04-19T16:36:28.979Z,4.00
2018-04-19T16:38:55.957Z,3.90
2018-04-19T16:41:22.205Z,4.03
2018-04-19T16:43:48.513Z,4.17
2018-04-19T16:46:14.736Z,3.73
2018-04-19T16:48:41.036Z,4.27
2018-04-19T16:51:08.018Z,4.00
2018-04-19T16:53:34.296Z,4.13
2018-04-19T16:56:00.573Z,4.10
2018-04-19T16:58:26.872Z,3.93
2018-04-19T17:00:53.203Z,4.20
2018-04-19T17:03:19.396Z,3.60
2018-04-19T17:05:45.632Z,3.57
2018-04-19T17:08:11.936Z,4.20
2018-04-19T17:10:38.172Z,4.20
2018-04-19T17:13:04.423Z,4.50
2018-04-19T17:15:30.732Z,4.10
2018-04-19T17:17:56.965Z,3.73
2018-04-19T17:20:23.236Z,4.80
2018-04-19T17:22:51.333Z,4.47
2018-04-19T17:25:17.553Z,4.43
2018-04-19T17:27:43.789Z,4.80
2018-04-19T17:30:10.076Z,4.40
2018-04-19T17:32:36.311Z,3.90
2018-04-19T17:35:02.516Z,4.13
2018-04-19T17:37:28.797Z,3.87
2018-04-19T17:39:55.054Z,4.13
2018-04-19T17:42:21.389Z,3.93
2018-04-19T17:44:47.590Z,4.43
2018-04-19T17:47:13.802Z,4.90
2018-04-19T17:49:40.054Z,4.60
2018-04-19T17:52:06.350Z,4.37
2018-04-19T17:54:33.312Z,4.50
2018-04-19T17:56:59.599Z,4.30
2018-04-19T17:59:25.820Z,5.07
2018-04-19T18:01:52.089Z,4.60
2018-04-19T18:04:18.427Z,4.13
2018-04-19T18:06:44.704Z,3.70
2018-04-19T18:09:10.963Z,3.60
2018-04-19T18:11:37.954Z,4.80
2018-04-19T18:14:04.185Z,4.53
2018-04-19T18:16:30.449Z,4.50
2018-04-19T18:18:56.717Z,4.40
2018-04-19T18:21:22.997Z,3.80
2018-04-19T18:23:49.270Z,4.10
2018-04-19T18:26:15.573Z,4.17
2018-04-19T18:28:41.813Z,4.83
2018-04-19T18:31:08.132Z,4.40
2018-04-19T18:33:34.337Z,4.67
2018-04-19T18:36:00.589Z,3.93
2018-04-19T18:38:26.885Z,4.03
2018-04-19T18:40:53.118Z,4.03
2018-04-19T18:43:19.326Z,4.20
2018-04-19T18:45:45.646Z,4.32
2018-04-19T18:48:11.921Z,4.53
2018-04-19T18:50:38.151Z,5.07
2018-04-19T18:53:04.403Z,4.60
2018-04-19T18:55:31.399Z,4.53
2018-04-19T18:57:57.685Z,4.33
2018-04-19T19:00:24.698Z,5.00
2018-04-19T19:02:50.935Z,4.50
2018-04-19T19:05:17.163Z,4.77
2018-04-19T19:07:43.550Z,4.70
2018-04-19T19:10:09.766Z,3.70
2018-04-19T19:12:35.985Z,4.70
2018-04-19T19:15:02.258Z,4.50
2018-04-19T19:17:40.743Z,4.73
2018-04-19T19:20:10.680Z,4.60
2018-04-19T19:22:36.927Z,4.80
2018-04-19T19:25:03.219Z,4.70
2018-04-19T19:27:30.335Z,5.00
2018-04-19T19:29:57.352Z,4.73
2018-04-19T19:32:23.616Z,4.37
2018-04-19T19:34:50.595Z,4.83
2018-04-19T19:37:16.870Z,4.20
2018-04-19T19:39:43.147Z,4.90
2018-04-19T19:42:09.461Z,4.40
2018-04-19T19:44:35.731Z,5.00
2018-04-19T19:47:02.058Z,4.90
2018-04-19T19:49:28.301Z,4.83
2018-04-19T19:51:54.571Z,4.30
2018-04-19T19:54:20.806Z,5.40
2018-04-19T19:56:47.117Z,5.60
2018-04-19T19:59:14.080Z,5.70
2018-04-19T20:01:41.388Z,4.97
2018-04-19T20:04:07.645Z,4.80
2018-04-19T20:06:34.654Z,4.47
2018-04-19T20:09:00.858Z,4.40
2018-04-19T20:11:27.115Z,4.60
2018-04-19T20:13:53.377Z,4.33
2018-04-19T20:16:20.397Z,4.23
2018-04-19T20:18:46.663Z,4.40
2018-04-19T20:21:13.626Z,3.90
2018-04-19T20:23:39.889Z,4.60
2018-04-19T20:26:06.127Z,3.40
2018-04-19T20:28:32.346Z,3.73
2018-04-19T20:30:58.550Z,4.37
2018-04-19T20:33:24.784Z,3.90
2018-04-19T20:35:51.058Z,3.50
2018-04-19T20:38:18.027Z,3.83
2018-04-19T20:40:44.214Z,3.60
2018-04-19T20:43:10.438Z,3.20
2018-04-19T20:45:36.679Z,4.13
2018-04-19T20:48:02.949Z,4.70
2018-04-19T20:50:29.190Z,3.50
2018-04-19T20:52:55.462Z,4.40
2018-04-19T20:55:21.730Z,3.10
2018-04-19T20:57:47.998Z,4.07
2018-04-19T21:00:14.210Z,3.80
2018-04-19T21:02:40.410Z,5.00
2018-04-19T21:05:06.711Z,4.73
2018-04-19T21:07:32.970Z,5.00
2018-04-19T21:09:59.295Z,4.90
2018-04-19T21:12:25.573Z,5.60
2018-04-19T21:14:51.826Z,5.50
2018-04-19T21:17:18.066Z,5.03
2018-04-19T21:19:53.988Z,5.80
2018-04-19T21:22:20.214Z,4.90
2018-04-19T21:24:46.506Z,5.30
2018-04-19T21:27:13.461Z,5.57
2018-04-19T21:29:39.727Z,5.30
2018-04-19T21:32:05.994Z,6.17
2018-04-19T21:34:33.001Z,5.50
2018-04-19T21:36:59.250Z,6.00
2018-04-19T21:39:25.583Z,5.97
2018-04-19T21:41:52.607Z,5.87
2018-04-19T21:44:18.802Z,5.70
2018-04-19T21:46:45.002Z,5.37
2018-04-19T21:49:11.982Z,5.43
2018-04-19T21:51:38.199Z,5.50
2018-04-19T21:54:04.438Z,4.90
2018-04-19T21:56:30.623Z,5.60
2018-04-19T21:58:57.594Z,5.77
2018-04-19T22:01:25.934Z,5.50
2018-04-19T22:03:52.139Z,5.63
2018-04-19T22:06:18.417Z,6.33
2018-04-19T22:08:44.620Z,5.70
2018-04-19T22:11:10.912Z,5.17
2018-04-19T22:13:37.147Z,5.47
2018-04-19T22:16:03.394Z,5.90
2018-04-19T22:18:30.713Z,5.70
2018-04-19T22:20:57.987Z,4.97
2018-04-19T22:23:43.858Z,5.20
2018-04-19T22:26:10.110Z,5.50
2018-04-19T22:28:36.462Z,5.97
2018-04-19T22:31:03.459Z,4.77
2018-04-19T22:33:29.659Z,5.60
2018-04-19T22:35:55.949Z,4.80
2018-04-19T22:38:23.235Z,5.40
2018-04-19T22:40:49.485Z,5.03
2018-04-19T22:43:15.766Z,4.80
2018-04-19T22:45:41.990Z,6.20
2018-04-19T22:48:08.237Z,5.53
2018-04-19T22:50:35.263Z,5.57
2018-04-19T22:53:01.467Z,5.17
2018-04-19T22:55:27.691Z,5.13
2018-04-19T22:57:53.959Z,6.63
2018-04-19T23:00:20.191Z,6.30
2018-04-19T23:02:46.422Z,6.43
2018-04-19T23:05:13.418Z,5.70
2018-04-19T23:07:39.631Z,6.47
2018-04-19T23:10:05.931Z,6.10
2018-04-19T23:12:32.252Z,6.30
2018-04-19T23:14:59.273Z,5.90
2018-04-19T23:17:25.534Z,6.30
2018-04-19T23:19:51.782Z,5.93
2018-04-19T23:22:35.928Z,5.60
2018-04-19T23:25:05.970Z,6.83
2018-04-19T23:27:32.204Z,5.47
2018-04-19T23:29:58.478Z,5.93
2018-04-19T23:32:25.512Z,6.60
2018-04-19T23:34:51.798Z,6.87
2018-04-19T23:37:18.057Z,6.33
2018-04-19T23:39:44.354Z,6.87
2018-04-19T23:42:10.631Z,6.50
2018-04-19T23:44:36.910Z,6.23
2018-04-19T23:47:03.183Z,6.60
2018-04-19T23:49:29.555Z,6.73
2018-04-19T23:51:55.819Z,6.53
2018-04-19T23:54:22.114Z,6.33
2018-04-19T23:56:48.403Z,6.37
2018-04-19T23:59:14.675Z,6.00
